createdAt,value
2023-03-17T00:01:16.932Z,101703.63
2023-03-17T00:04:38.512Z,101701.09
2023-03-17T00:08:05.508Z,101703.72
2023-03-17T00:11:29.001Z,101697.56
2023-03-17T00:14:50.322Z,101690.56
2023-03-17T00:18:14.984Z,101688.09
2023-03-17T00:21:36.743Z,101693.38
2023-03-17T00:24:58.514Z,101688.09
2023-03-17T00:28:23.273Z,101688.94
2023-03-17T00:31:46.037Z,101679.38
2023-03-17T00:35:16.514Z,101681.09
2023-03-17T00:38:38.789Z,101673.94
2023-03-17T00:42:00.160Z,101687.22
2023-03-17T00:45:24.061Z,101684.56
2023-03-17T00:48:46.776Z,101681.16
2023-03-17T00:52:09.658Z,101663.59
2023-03-17T00:55:31.080Z,101654.97
2023-03-17T00:58:52.406Z,101653.47
2023-03-17T01:02:15.540Z,101650.16
2023-03-17T01:05:37.898Z,101645.28
2023-03-17T01:08:59.468Z,101632.19
2023-03-17T01:12:21.439Z,101626.13
2023-03-17T01:15:46.248Z,101629.69
2023-03-17T01:19:10.927Z,101627.19
2023-03-17T01:22:32.674Z,101628.19
2023-03-17T01:25:54.490Z,101621.97
2023-03-17T01:29:16.499Z,101621.19
2023-03-17T01:32:38.178Z,101618.78
2023-03-17T01:36:01.300Z,101610.06
2023-03-17T01:39:23.060Z,101608.50
2023-03-17T01:42:48.567Z,101594.69
2023-03-17T01:46:20.732Z,101594.06
2023-03-17T01:49:43.217Z,101595.28
2023-03-17T01:53:06.564Z,101586.59
2023-03-17T01:56:28.373Z,101585.66
2023-03-17T01:59:53.725Z,101587.34
2023-03-17T02:03:15.748Z,101588.19
2023-03-17T02:06:47.398Z,101585.56
2023-03-17T02:10:21.422Z,101566.25
2023-03-17T02:13:44.761Z,101568.00
2023-03-17T02:17:09.162Z,101560.88
2023-03-17T02:21:04.179Z,101563.34
2023-03-17T02:24:33.173Z,101556.16
2023-03-17T02:27:59.407Z,101547.25
2023-03-17T02:31:21.933Z,101556.94
2023-03-17T02:34:47.012Z,101542.78
2023-03-17T02:38:08.629Z,101542.06
2023-03-17T02:41:31.711Z,101528.81
2023-03-17T02:44:54.974Z,101536.69
2023-03-17T02:48:16.798Z,101528.75
2023-03-17T02:51:38.808Z,101533.16
2023-03-17T02:55:00.306Z,101527.94
2023-03-17T02:58:23.699Z,101515.78
2023-03-17T03:01:48.530Z,101517.78
2023-03-17T03:05:11.317Z,101528.19
2023-03-17T03:08:32.838Z,101522.91
2023-03-17T03:11:54.608Z,101526.41
2023-03-17T03:15:17.363Z,101523.69
2023-03-17T03:18:38.956Z,101530.06
2023-03-17T03:22:00.807Z,101536.16
2023-03-17T03:25:22.472Z,101536.16
2023-03-17T03:28:44.180Z,101535.34
2023-03-17T03:32:08.270Z,101537.09
2023-03-17T03:35:30.594Z,101541.44
2023-03-17T03:38:52.163Z,101542.31
2023-03-17T03:42:13.862Z,101539.53
2023-03-17T03:45:35.830Z,101545.75
2023-03-17T03:48:58.544Z,101533.38
2023-03-17T03:52:20.096Z,101527.16
2023-03-17T03:55:42.077Z,101527.31
2023-03-17T03:59:04.024Z,101533.38
2023-03-17T04:02:25.797Z,101533.31
2023-03-17T04:05:49.076Z,101523.75
2023-03-17T04:09:10.770Z,101534.47
2023-03-17T04:12:32.414Z,101524.00
2023-03-17T04:15:54.282Z,101529.34
2023-03-17T04:19:16.326Z,101526.94
2023-03-17T04:22:39.252Z,101522.59
2023-03-17T04:26:00.939Z,101523.53
2023-03-17T04:29:22.398Z,101518.31
2023-03-17T04:32:44.969Z,101509.66
2023-03-17T04:36:07.750Z,101514.94
2023-03-17T04:39:30.512Z,101514.13
2023-03-17T04:42:51.690Z,101501.06
2023-03-17T04:46:13.703Z,101503.00
2023-03-17T04:49:35.454Z,101491.03
2023-03-17T04:52:57.294Z,101492.09
2023-03-17T04:56:21.042Z,101494.13
2023-03-17T04:59:42.841Z,101494.34
2023-03-17T05:03:07.118Z,101496.19
2023-03-17T05:06:33.021Z,101499.03
2023-03-17T05:09:54.449Z,101506.25
2023-03-17T05:13:18.836Z,101501.97
2023-03-17T05:16:40.788Z,101518.03
2023-03-17T05:20:02.530Z,101497.13
2023-03-17T05:23:24.319Z,101498.22
2023-03-17T05:26:46.026Z,101501.06
2023-03-17T05:30:10.906Z,101509.19
2023-03-17T05:33:32.984Z,101489.97
2023-03-17T05:36:54.745Z,101469.78
2023-03-17T05:40:16.806Z,101477.19
2023-03-17T05:43:38.677Z,101495.06
2023-03-17T05:47:02.004Z,101476.78
2023-03-17T05:50:23.846Z,101479.56
2023-03-17T05:53:45.838Z,101479.56
2023-03-17T05:57:07.741Z,101484.09
2023-03-17T06:00:29.743Z,101491.34
2023-03-17T06:03:52.524Z,101495.13
2023-03-17T06:07:14.458Z,101509.06
2023-03-17T06:10:36.293Z,101489.66
2023-03-17T06:13:57.717Z,101494.91
2023-03-17T06:17:19.488Z,101483.22
2023-03-17T06:20:42.889Z,101477.75
2023-03-17T06:24:04.695Z,101474.03
2023-03-17T06:27:26.471Z,101478.97
2023-03-17T06:30:47.856Z,101481.25
2023-03-17T06:34:09.920Z,101467.63
2023-03-17T06:37:33.432Z,101468.28
2023-03-17T06:40:54.974Z,101481.09
2023-03-17T06:44:16.235Z,101461.56
2023-03-17T06:47:38.236Z,101469.13
2023-03-17T06:50:59.943Z,101465.31
2023-03-17T06:54:24.683Z,101466.66
2023-03-17T06:57:48.357Z,101471.63
2023-03-17T07:01:10.633Z,101467.75
2023-03-17T07:04:32.610Z,101474.44
2023-03-17T07:07:54.461Z,101465.50
2023-03-17T07:11:17.557Z,101452.00
2023-03-17T07:14:39.084Z,101454.31
2023-03-17T07:18:00.965Z,101451.47
2023-03-17T07:21:22.132Z,101459.06
2023-03-17T07:24:43.669Z,101461.22
2023-03-17T07:28:06.616Z,101456.44
2023-03-17T07:31:28.332Z,101456.88
2023-03-17T07:34:49.950Z,101445.13
2023-03-17T07:38:13.020Z,101439.44
2023-03-17T07:41:34.862Z,101417.13
2023-03-17T07:44:57.813Z,101405.53
2023-03-17T07:48:19.704Z,101393.72
2023-03-17T07:51:43.247Z,101391.56
2023-03-17T07:55:05.338Z,101374.53
2023-03-17T07:58:27.094Z,101371.66
2023-03-17T08:01:50.645Z,101378.97
2023-03-17T08:05:13.318Z,101365.34
2023-03-17T08:08:35.203Z,101380.03
2023-03-17T08:11:57.149Z,101389.38
2023-03-17T08:15:18.940Z,101393.13
2023-03-17T08:18:42.064Z,101383.72
2023-03-17T08:22:03.948Z,101383.28
2023-03-17T08:25:25.827Z,101382.75
2023-03-17T08:28:48.678Z,101384.97
2023-03-17T08:32:10.619Z,101374.88
2023-03-17T08:35:34.359Z,101371.75
2023-03-17T08:38:56.713Z,101363.94
2023-03-17T08:42:18.544Z,101369.53
2023-03-17T08:45:40.731Z,101366.31
2023-03-17T08:49:03.350Z,101341.94
2023-03-17T08:52:26.103Z,101328.88
2023-03-17T08:55:47.717Z,101340.59
2023-03-17T08:59:09.761Z,101338.88
2023-03-17T09:02:31.332Z,101339.25
2023-03-17T09:05:53.047Z,101336.97
2023-03-17T09:09:16.827Z,101334.66
2023-03-17T09:12:38.770Z,101338.34
2023-03-17T09:16:01.498Z,101341.25
2023-03-17T09:19:23.851Z,101337.03
2023-03-17T09:22:45.272Z,101321.38
2023-03-17T09:26:09.039Z,101316.41
2023-03-17T09:29:30.969Z,101318.34
2023-03-17T09:32:52.724Z,101315.84
2023-03-17T09:36:14.556Z,101316.38
2023-03-17T09:39:36.514Z,101317.56
2023-03-17T09:43:08.386Z,101312.47
2023-03-17T09:46:42.860Z,101304.72
2023-03-17T09:50:12.680Z,101301.53
2023-03-17T09:53:37.611Z,101300.03
2023-03-17T09:57:06.168Z,101299.53
2023-03-17T10:00:31.203Z,101302.25
2023-03-17T10:03:53.591Z,101299.91
2023-03-17T10:07:18.924Z,101301.91
2023-03-17T10:10:46.491Z,101303.06
2023-03-17T10:14:19.228Z,101293.66
2023-03-17T10:17:43.291Z,101291.19
2023-03-17T10:21:07.502Z,101292.44
2023-03-17T10:24:32.618Z,101281.34
2023-03-17T10:28:00.803Z,101289.63
2023-03-17T10:31:29.588Z,101280.97
2023-03-17T10:34:52.386Z,101294.53
2023-03-17T10:38:17.748Z,101296.41
2023-03-17T10:41:42.088Z,101289.56
2023-03-17T10:45:16.066Z,101288.72
2023-03-17T10:48:39.845Z,101290.97
2023-03-17T10:52:08.646Z,101274.53
2023-03-17T10:55:33.084Z,101274.88
2023-03-17T10:58:56.979Z,101269.13
2023-03-17T11:02:24.088Z,101266.56
2023-03-17T11:05:56.246Z,101271.41
2023-03-17T11:09:21.613Z,101277.75
2023-03-17T11:12:44.035Z,101259.44
2023-03-17T11:16:17.188Z,101255.34
2023-03-17T11:19:51.009Z,101247.44
2023-03-17T11:23:27.585Z,101245.13
2023-03-17T11:27:01.240Z,101245.38
2023-03-17T11:30:32.779Z,101237.72
2023-03-17T11:34:05.301Z,101235.53
2023-03-17T11:37:42.977Z,101233.09
2023-03-17T11:41:34.919Z,101236.00
2023-03-17T11:45:18.175Z,101232.44
2023-03-17T11:48:49.780Z,101238.00
2023-03-17T11:52:21.967Z,101226.69
2023-03-17T11:55:46.968Z,101226.75
2023-03-17T11:59:18.254Z,101215.34
2023-03-17T12:02:45.116Z,101217.22
2023-03-17T12:06:11.938Z,101206.31
2023-03-17T12:09:40.868Z,101205.78
2023-03-17T12:13:08.381Z,101203.56
2023-03-17T12:16:37.264Z,101194.91
2023-03-17T12:20:09.632Z,101187.19
2023-03-17T12:23:38.177Z,101181.31
2023-03-17T12:27:05.002Z,101184.47
2023-03-17T12:30:31.915Z,101181.53
2023-03-17T12:34:01.740Z,101182.94
2023-03-17T12:37:27.705Z,101181.56
2023-03-17T12:41:15.601Z,101178.47
2023-03-17T12:44:53.957Z,101183.00
2023-03-17T12:48:58.985Z,101187.69
2023-03-17T12:52:38.269Z,101172.25
2023-03-17T12:56:04.501Z,101171.97
2023-03-17T12:59:27.054Z,101164.66
2023-03-17T13:02:52.108Z,101163.13
2023-03-17T13:06:20.899Z,101160.19
2023-03-17T13:09:50.731Z,101169.50
2023-03-17T13:13:23.293Z,101145.00
2023-03-17T13:16:47.823Z,101152.44
2023-03-17T13:20:17.726Z,101134.91
2023-03-17T13:23:42.806Z,101132.47
2023-03-17T13:27:05.986Z,101133.88
2023-03-17T13:30:45.943Z,101124.78
2023-03-17T13:34:16.272Z,101122.81
2023-03-17T13:37:53.204Z,101120.84
2023-03-17T13:41:38.490Z,101115.78
2023-03-17T13:45:19.716Z,101124.50
2023-03-17T13:48:41.843Z,101128.44
2023-03-17T13:52:09.137Z,101113.81
2023-03-17T13:55:40.923Z,101119.69
2023-03-17T13:59:13.671Z,101120.28
2023-03-17T14:02:40.923Z,101120.69
2023-03-17T14:06:06.689Z,101121.09
2023-03-17T14:09:36.882Z,101115.44
2023-03-17T14:13:04.777Z,101113.47
2023-03-17T14:16:31.022Z,101106.13
2023-03-17T14:20:08.428Z,101102.34
2023-03-17T14:23:31.038Z,101106.84
2023-03-17T14:26:54.032Z,101109.09
2023-03-17T14:30:21.259Z,101098.22
2023-03-17T14:33:43.125Z,101090.63
2023-03-17T14:37:06.323Z,101089.34
2023-03-17T14:40:32.329Z,101086.38
2023-03-17T14:43:58.620Z,101088.75
2023-03-17T14:47:24.228Z,101082.41
2023-03-17T14:50:52.970Z,101086.06
2023-03-17T14:54:19.154Z,101079.72
2023-03-17T14:57:40.818Z,101080.44
2023-03-17T15:01:05.896Z,101064.19
2023-03-17T15:04:28.920Z,101060.38
2023-03-17T15:07:50.420Z,101064.75
2023-03-17T15:11:21.289Z,101071.66
2023-03-17T15:14:44.648Z,101068.00
2023-03-17T15:18:12.320Z,101066.59
2023-03-17T15:21:36.824Z,101051.34
2023-03-17T15:25:02.871Z,101046.84
2023-03-17T15:28:26.790Z,101051.22
2023-03-17T15:31:48.474Z,101043.88
2023-03-17T15:35:13.571Z,101045.00
2023-03-17T15:38:38.890Z,101041.03
2023-03-17T15:42:00.924Z,101042.72
2023-03-17T15:45:23.642Z,101043.41
2023-03-17T15:48:44.836Z,101029.34
2023-03-17T15:52:12.456Z,101026.94
2023-03-17T15:55:33.692Z,101036.28
2023-03-17T15:58:55.386Z,101016.44
2023-03-17T16:02:27.810Z,101016.03
2023-03-17T16:05:49.227Z,101019.84
2023-03-17T16:09:16.181Z,101025.50
2023-03-17T16:12:37.965Z,101033.13
2023-03-17T16:16:05.521Z,101025.53
2023-03-17T16:19:29.411Z,101028.78
2023-03-17T16:22:51.639Z,101021.06
2023-03-17T16:26:15.990Z,101032.63
2023-03-17T16:29:38.096Z,101038.28
2023-03-17T16:33:05.035Z,101035.03
2023-03-17T16:36:27.863Z,101038.00
2023-03-17T16:39:52.186Z,101039.13
2023-03-17T16:43:25.610Z,101036.19
2023-03-17T16:46:48.603Z,101031.56
2023-03-17T16:50:16.532Z,101031.53
2023-03-17T16:53:39.549Z,101036.63
2023-03-17T16:57:01.445Z,101027.31
2023-03-17T17:00:25.413Z,101025.06
2023-03-17T17:03:47.139Z,101026.34
2023-03-17T17:07:08.630Z,101025.22
2023-03-17T17:10:34.113Z,101025.78
2023-03-17T17:13:55.729Z,101018.31
2023-03-17T17:17:17.501Z,101025.22
2023-03-17T17:20:40.539Z,101021.28
2023-03-17T17:24:02.011Z,101023.63
2023-03-17T17:27:25.968Z,101024.91
2023-03-17T17:30:48.109Z,101022.63
2023-03-17T17:34:09.682Z,101023.06
2023-03-17T17:37:32.125Z,101022.75
2023-03-17T17:40:55.556Z,101025.88
2023-03-17T17:44:19.031Z,101024.69
2023-03-17T17:47:40.822Z,101024.25
2023-03-17T17:51:02.460Z,101024.53
2023-03-17T17:54:23.858Z,101023.97
2023-03-17T17:57:45.959Z,101026.78
2023-03-17T18:01:09.219Z,101028.03
2023-03-17T18:04:30.854Z,101042.47
2023-03-17T18:07:52.820Z,101041.06
2023-03-17T18:11:14.349Z,101044.88
2023-03-17T18:14:36.000Z,101029.13
2023-03-17T18:17:58.826Z,101041.88
2023-03-17T18:21:20.327Z,101042.00
2023-03-17T18:24:42.105Z,101035.25
2023-03-17T18:28:03.433Z,101029.19
2023-03-17T18:31:29.211Z,101036.38
2023-03-17T18:34:52.133Z,101044.50
2023-03-17T18:38:13.687Z,101043.66
2023-03-17T18:41:35.940Z,101041.34
2023-03-17T18:44:57.755Z,101039.94
2023-03-17T18:48:20.380Z,101033.16
2023-03-17T18:51:43.236Z,101029.91
2023-03-17T18:55:06.614Z,101021.19
2023-03-17T18:58:28.890Z,101017.81
2023-03-17T19:01:50.471Z,101009.94
2023-03-17T19:05:12.970Z,101011.31
2023-03-17T19:08:36.110Z,101005.97
2023-03-17T19:11:57.706Z,101013.13
2023-03-17T19:15:20.730Z,101009.88
2023-03-17T19:18:42.862Z,101019.84
2023-03-17T19:22:06.244Z,101014.63
2023-03-17T19:25:30.021Z,101000.59
2023-03-17T19:28:52.296Z,100999.03
2023-03-17T19:32:14.408Z,101000.84
2023-03-17T19:35:35.918Z,100993.09
2023-03-17T19:38:57.455Z,100994.19
2023-03-17T19:42:20.433Z,100997.28
2023-03-17T19:45:42.549Z,100993.19
2023-03-17T19:49:04.669Z,100988.94
2023-03-17T19:52:26.401Z,100989.81
2023-03-17T19:55:47.679Z,100991.75
2023-03-17T19:59:10.949Z,100998.34
2023-03-17T20:02:32.401Z,101000.16
2023-03-17T20:05:54.263Z,101001.22
2023-03-17T20:09:16.052Z,100996.88
2023-03-17T20:12:38.479Z,101007.81
2023-03-17T20:16:01.835Z,101013.41
2023-03-17T20:19:23.910Z,101011.72
2023-03-17T20:22:46.684Z,101027.97
2023-03-17T20:26:09.265Z,101017.44
2023-03-17T20:29:31.516Z,101012.22
2023-03-17T20:32:55.339Z,101014.19
2023-03-17T20:36:17.189Z,101014.28
2023-03-17T20:39:38.980Z,101016.25
2023-03-17T20:43:01.057Z,101016.38
2023-03-17T20:46:23.864Z,101013.97
2023-03-17T20:49:47.905Z,101019.56
2023-03-17T20:53:10.348Z,101013.63
2023-03-17T20:56:33.801Z,101016.81
2023-03-17T20:59:56.027Z,101020.09
2023-03-17T21:03:18.019Z,101016.41
2023-03-17T21:06:41.555Z,101015.19
2023-03-17T21:10:03.125Z,101009.53
2023-03-17T21:13:24.849Z,101006.63
2023-03-17T21:16:47.271Z,101004.59
2023-03-17T21:20:10.435Z,100996.34
2023-03-17T21:23:33.506Z,101002.16
2023-03-17T21:26:56.077Z,101003.75
2023-03-17T21:30:18.466Z,100999.88
2023-03-17T21:33:41.934Z,101004.84
2023-03-17T21:37:03.853Z,101002.91
2023-03-17T21:40:27.699Z,100992.88
2023-03-17T21:43:49.227Z,100992.63
2023-03-17T21:47:11.840Z,101000.59
2023-03-17T21:50:34.557Z,100991.53
2023-03-17T21:53:56.201Z,100999.13
2023-03-17T21:57:19.438Z,100992.59
2023-03-17T22:00:45.623Z,100989.56
2023-03-17T22:04:08.377Z,100994.63
2023-03-17T22:07:30.237Z,100996.16
2023-03-17T22:10:52.015Z,100996.63
2023-03-17T22:14:19.788Z,100994.31
2023-03-17T22:17:41.115Z,100989.47
2023-03-17T22:21:02.742Z,100984.63
2023-03-17T22:24:25.629Z,100980.50
2023-03-17T22:27:47.494Z,100974.31
2023-03-17T22:31:15.731Z,100981.56
2023-03-17T22:34:38.562Z,100987.84
2023-03-17T22:38:00.187Z,100988.78
2023-03-17T22:41:24.275Z,100981.78
2023-03-17T22:44:46.271Z,100986.50
2023-03-17T22:48:10.908Z,100981.75
2023-03-17T22:51:32.868Z,100980.38
2023-03-17T22:54:54.748Z,100976.59
2023-03-17T22:58:16.167Z,100987.56
2023-03-17T23:01:38.109Z,100982.59
2023-03-17T23:05:00.749Z,100985.59
2023-03-17T23:08:22.849Z,100974.25
2023-03-17T23:11:44.368Z,100969.66
2023-03-17T23:15:07.317Z,100972.09
2023-03-17T23:18:28.837Z,100961.34
2023-03-17T23:21:51.871Z,100963.91
2023-03-17T23:25:13.773Z,100962.09
2023-03-17T23:28:36.074Z,100965.38
2023-03-17T23:31:58.637Z,100968.75
2023-03-17T23:35:20.652Z,100965.00
2023-03-17T23:38:44.582Z,100966.84
2023-03-17T23:42:06.455Z,100967.78
2023-03-17T23:45:28.171Z,100958.00
2023-03-17T23:48:50.263Z,100959.84
2023-03-17T23:52:11.903Z,100949.31
2023-03-17T23:55:35.082Z,100948.34
2023-03-17T23:58:56.791Z,100953.66
